sensor_id;sensor_type;location;lat;lon;timestamp;temperature;humidity
2929;DHT22;1474;51.460;7.150;2023-07-13T00:01:51;18.60;60.30
2929;DHT22;1474;51.460;7.150;2023-07-13T00:04:19;18.60;60.20
2929;DHT22;1474;51.460;7.150;2023-07-13T00:06:48;18.60;60.30
2929;DHT22;1474;51.460;7.150;2023-07-13T00:09:16;18.60;60.80
2929;DHT22;1474;51.460;7.150;2023-07-13T00:11:44;18.50;60.70
2929;DHT22;1474;51.460;7.150;2023-07-13T00:14:13;18.50;60.90
2929;DHT22;1474;51.460;7.150;2023-07-13T00:16:41;18.40;61.00
2929;DHT22;1474;51.460;7.150;2023-07-13T00:19:09;18.40;61.10
2929;DHT22;1474;51.460;7.150;2023-07-13T00:21:37;18.40;61.00
2929;DHT22;1474;51.460;7.150;2023-07-13T00:24:04;18.30;61.10
2929;DHT22;1474;51.460;7.150;2023-07-13T00:26:30;18.30;61.30
2929;DHT22;1474;51.460;7.150;2023-07-13T00:28:58;18.20;61.40
2929;DHT22;1474;51.460;7.150;2023-07-13T00:31:24;18.20;61.20
2929;DHT22;1474;51.460;7.150;2023-07-13T00:33:50;18.20;61.30
2929;DHT22;1474;51.460;7.150;2023-07-13T00:36:16;18.10;61.50
2929;DHT22;1474;51.460;7.150;2023-07-13T00:38:42;18.10;61.10
2929;DHT22;1474;51.460;7.150;2023-07-13T00:41:08;18.10;61.90
2929;DHT22;1474;51.460;7.150;2023-07-13T00:43:34;18.00;61.20
2929;DHT22;1474;51.460;7.150;2023-07-13T00:46:39;18.00;61.00
2929;DHT22;1474;51.460;7.150;2023-07-13T00:49:08;17.90;61.20
2929;DHT22;1474;51.460;7.150;2023-07-13T00:52:04;17.90;61.20
2929;DHT22;1474;51.460;7.150;2023-07-13T00:54:43;17.80;61.50
2929;DHT22;1474;51.460;7.150;2023-07-13T00:57:14;17.80;61.70
2929;DHT22;1474;51.460;7.150;2023-07-13T00:59:46;17.70;61.40
2929;DHT22;1474;51.460;7.150;2023-07-13T01:02:14;17.70;62.00
2929;DHT22;1474;51.460;7.150;2023-07-13T01:04:41;17.70;62.00
2929;DHT22;1474;51.460;7.150;2023-07-13T01:07:11;17.60;61.90
2929;DHT22;1474;51.460;7.150;2023-07-13T01:09:37;17.60;62.00
2929;DHT22;1474;51.460;7.150;2023-07-13T01:12:03;17.60;62.30
2929;DHT22;1474;51.460;7.150;2023-07-13T01:14:29;17.50;62.40
2929;DHT22;1474;51.460;7.150;2023-07-13T01:16:55;17.50;63.00
2929;DHT22;1474;51.460;7.150;2023-07-13T01:19:44;17.40;62.70
2929;DHT22;1474;51.460;7.150;2023-07-13T01:22:15;17.40;62.70
2929;DHT22;1474;51.460;7.150;2023-07-13T01:24:44;17.40;62.70
2929;DHT22;1474;51.460;7.150;2023-07-13T01:27:16;17.40;63.00
2929;DHT22;1474;51.460;7.150;2023-07-13T01:29:46;17.40;63.00
2929;DHT22;1474;51.460;7.150;2023-07-13T01:32:26;17.40;62.90
2929;DHT22;1474;51.460;7.150;2023-07-13T01:34:53;17.40;63.40
2929;DHT22;1474;51.460;7.150;2023-07-13T01:37:20;17.40;63.10
2929;DHT22;1474;51.460;7.150;2023-07-13T01:39:47;17.30;63.00
2929;DHT22;1474;51.460;7.150;2023-07-13T01:42:13;17.30;63.50
2929;DHT22;1474;51.460;7.150;2023-07-13T01:44:39;17.30;63.70
2929;DHT22;1474;51.460;7.150;2023-07-13T01:47:05;17.30;63.30
2929;DHT22;1474;51.460;7.150;2023-07-13T01:49:31;17.20;63.50
2929;DHT22;1474;51.460;7.150;2023-07-13T01:51:57;17.20;63.60
2929;DHT22;1474;51.460;7.150;2023-07-13T01:54:23;17.20;63.50
2929;DHT22;1474;51.460;7.150;2023-07-13T01:56:49;17.20;63.70
2929;DHT22;1474;51.460;7.150;2023-07-13T01:59:15;17.20;63.80
2929;DHT22;1474;51.460;7.150;2023-07-13T02:01:40;17.10;63.80
2929;DHT22;1474;51.460;7.150;2023-07-13T02:04:06;17.10;63.80
2929;DHT22;1474;51.460;7.150;2023-07-13T02:06:32;17.10;64.10
2929;DHT22;1474;51.460;7.150;2023-07-13T02:08:58;17.10;64.10
2929;DHT22;1474;51.460;7.150;2023-07-13T02:11:25;17.00;64.30
2929;DHT22;1474;51.460;7.150;2023-07-13T02:13:58;17.00;63.90
2929;DHT22;1474;51.460;7.150;2023-07-13T02:16:26;17.00;64.40
2929;DHT22;1474;51.460;7.150;2023-07-13T02:18:52;17.00;64.30
2929;DHT22;1474;51.460;7.150;2023-07-13T02:21:18;16.90;64.20
2929;DHT22;1474;51.460;7.150;2023-07-13T02:23:44;16.90;64.40
2929;DHT22;1474;51.460;7.150;2023-07-13T02:26:10;16.90;64.90
2929;DHT22;1474;51.460;7.150;2023-07-13T02:28:35;16.80;64.60
2929;DHT22;1474;51.460;7.150;2023-07-13T02:31:09;16.80;64.70
2929;DHT22;1474;51.460;7.150;2023-07-13T02:33:36;16.80;64.80
2929;DHT22;1474;51.460;7.150;2023-07-13T02:36:02;16.80;65.10
2929;DHT22;1474;51.460;7.150;2023-07-13T02:38:31;16.80;64.90
2929;DHT22;1474;51.460;7.150;2023-07-13T02:41:01;16.80;65.20
2929;DHT22;1474;51.460;7.150;2023-07-13T02:43:28;16.80;65.30
2929;DHT22;1474;51.460;7.150;2023-07-13T02:45:55;16.70;65.20
2929;DHT22;1474;51.460;7.150;2023-07-13T02:48:21;16.70;65.10
2929;DHT22;1474;51.460;7.150;2023-07-13T02:50:46;16.60;65.30
2929;DHT22;1474;51.460;7.150;2023-07-13T02:53:12;16.60;65.30
2929;DHT22;1474;51.460;7.150;2023-07-13T02:55:38;16.60;65.70
2929;DHT22;1474;51.460;7.150;2023-07-13T02:58:06;16.60;65.70
2929;DHT22;1474;51.460;7.150;2023-07-13T03:00:32;16.60;66.00
2929;DHT22;1474;51.460;7.150;2023-07-13T03:02:58;16.50;66.20
2929;DHT22;1474;51.460;7.150;2023-07-13T03:05:24;16.50;66.40
2929;DHT22;1474;51.460;7.150;2023-07-13T03:07:50;16.50;66.70
2929;DHT22;1474;51.460;7.150;2023-07-13T03:10:15;16.50;67.20
2929;DHT22;1474;51.460;7.150;2023-07-13T03:12:42;16.40;66.70
2929;DHT22;1474;51.460;7.150;2023-07-13T03:15:08;16.30;67.00
2929;DHT22;1474;51.460;7.150;2023-07-13T03:17:34;16.40;67.20
2929;DHT22;1474;51.460;7.150;2023-07-13T03:20:00;16.40;66.90
2929;DHT22;1474;51.460;7.150;2023-07-13T03:22:26;16.40;67.30
2929;DHT22;1474;51.460;7.150;2023-07-13T03:24:52;16.30;67.90
2929;DHT22;1474;51.460;7.150;2023-07-13T03:27:18;16.30;67.50
2929;DHT22;1474;51.460;7.150;2023-07-13T03:29:44;16.30;67.80
2929;DHT22;1474;51.460;7.150;2023-07-13T03:32:10;16.30;67.60
2929;DHT22;1474;51.460;7.150;2023-07-13T03:34:35;16.30;67.60
2929;DHT22;1474;51.460;7.150;2023-07-13T03:37:01;16.30;68.00
2929;DHT22;1474;51.460;7.150;2023-07-13T03:39:27;16.30;67.90
2929;DHT22;1474;51.460;7.150;2023-07-13T03:41:53;16.20;68.20
2929;DHT22;1474;51.460;7.150;2023-07-13T03:44:18;16.20;68.00
2929;DHT22;1474;51.460;7.150;2023-07-13T03:46:45;16.20;68.40
2929;DHT22;1474;51.460;7.150;2023-07-13T03:49:11;16.20;68.50
2929;DHT22;1474;51.460;7.150;2023-07-13T03:51:37;16.20;68.70
2929;DHT22;1474;51.460;7.150;2023-07-13T03:54:03;16.10;68.40
2929;DHT22;1474;51.460;7.150;2023-07-13T03:56:30;16.10;68.70
2929;DHT22;1474;51.460;7.150;2023-07-13T03:58:56;16.10;68.80
2929;DHT22;1474;51.460;7.150;2023-07-13T04:01:23;16.20;68.70
2929;DHT22;1474;51.460;7.150;2023-07-13T04:03:52;16.10;69.20
2929;DHT22;1474;51.460;7.150;2023-07-13T04:06:21;16.20;69.10
2929;DHT22;1474;51.460;7.150;2023-07-13T04:08:50;16.20;69.70
2929;DHT22;1474;51.460;7.150;2023-07-13T04:11:19;16.20;69.50
2929;DHT22;1474;51.460;7.150;2023-07-13T04:13:46;16.10;69.60
2929;DHT22;1474;51.460;7.150;2023-07-13T04:16:14;16.20;69.80
2929;DHT22;1474;51.460;7.150;2023-07-13T04:18:41;16.30;69.50
2929;DHT22;1474;51.460;7.150;2023-07-13T04:21:08;16.30;69.90
2929;DHT22;1474;51.460;7.150;2023-07-13T04:23:35;16.30;69.30
2929;DHT22;1474;51.460;7.150;2023-07-13T04:26:01;16.30;70.00
2929;DHT22;1474;51.460;7.150;2023-07-13T04:28:27;16.30;69.80
2929;DHT22;1474;51.460;7.150;2023-07-13T04:30:54;16.30;69.60
2929;DHT22;1474;51.460;7.150;2023-07-13T04:33:20;16.30;69.60
2929;DHT22;1474;51.460;7.150;2023-07-13T04:35:53;16.30;70.00
2929;DHT22;1474;51.460;7.150;2023-07-13T04:38:28;16.30;69.90
2929;DHT22;1474;51.460;7.150;2023-07-13T04:41:00;16.40;70.00
2929;DHT22;1474;51.460;7.150;2023-07-13T04:43:29;16.40;69.90
2929;DHT22;1474;51.460;7.150;2023-07-13T04:45:56;16.40;70.00
2929;DHT22;1474;51.460;7.150;2023-07-13T04:48:23;16.40;70.10
2929;DHT22;1474;51.460;7.150;2023-07-13T04:50:56;16.50;69.80
2929;DHT22;1474;51.460;7.150;2023-07-13T04:53:24;16.50;70.30
2929;DHT22;1474;51.460;7.150;2023-07-13T04:55:50;16.50;70.30
2929;DHT22;1474;51.460;7.150;2023-07-13T04:58:16;16.50;70.60
2929;DHT22;1474;51.460;7.150;2023-07-13T05:00:42;16.60;70.40
2929;DHT22;1474;51.460;7.150;2023-07-13T05:03:08;16.60;69.70
2929;DHT22;1474;51.460;7.150;2023-07-13T05:05:34;16.70;70.30
2929;DHT22;1474;51.460;7.150;2023-07-13T05:08:00;16.70;70.50
2929;DHT22;1474;51.460;7.150;2023-07-13T05:10:26;16.70;70.30
2929;DHT22;1474;51.460;7.150;2023-07-13T05:12:52;16.80;70.40
2929;DHT22;1474;51.460;7.150;2023-07-13T05:15:20;16.80;70.60
2929;DHT22;1474;51.460;7.150;2023-07-13T05:17:48;16.90;70.40
2929;DHT22;1474;51.460;7.150;2023-07-13T05:20:15;16.90;70.20
2929;DHT22;1474;51.460;7.150;2023-07-13T05:22:43;17.00;70.60
2929;DHT22;1474;51.460;7.150;2023-07-13T05:25:09;17.00;70.10
2929;DHT22;1474;51.460;7.150;2023-07-13T05:27:36;17.10;69.60
2929;DHT22;1474;51.460;7.150;2023-07-13T05:30:03;17.10;70.30
2929;DHT22;1474;51.460;7.150;2023-07-13T05:32:29;17.20;69.80
2929;DHT22;1474;51.460;7.150;2023-07-13T05:34:55;17.20;69.60
2929;DHT22;1474;51.460;7.150;2023-07-13T05:37:21;17.30;69.90
2929;DHT22;1474;51.460;7.150;2023-07-13T05:39:47;17.30;69.90
2929;DHT22;1474;51.460;7.150;2023-07-13T05:42:12;17.40;69.40
2929;DHT22;1474;51.460;7.150;2023-07-13T05:44:38;17.40;69.30
2929;DHT22;1474;51.460;7.150;2023-07-13T05:47:04;17.40;69.30
2929;DHT22;1474;51.460;7.150;2023-07-13T05:49:30;17.50;69.50
2929;DHT22;1474;51.460;7.150;2023-07-13T05:51:56;17.50;69.20
2929;DHT22;1474;51.460;7.150;2023-07-13T05:54:22;17.60;69.20
2929;DHT22;1474;51.460;7.150;2023-07-13T05:56:48;17.60;68.80
2929;DHT22;1474;51.460;7.150;2023-07-13T05:59:14;17.60;69.30
2929;DHT22;1474;51.460;7.150;2023-07-13T06:01:40;17.60;69.10
2929;DHT22;1474;51.460;7.150;2023-07-13T06:04:06;17.70;69.00
2929;DHT22;1474;51.460;7.150;2023-07-13T06:06:33;17.70;69.20
2929;DHT22;1474;51.460;7.150;2023-07-13T06:08:59;17.70;69.40
2929;DHT22;1474;51.460;7.150;2023-07-13T06:11:26;17.80;69.50
2929;DHT22;1474;51.460;7.150;2023-07-13T06:13:53;17.90;69.30
2929;DHT22;1474;51.460;7.150;2023-07-13T06:16:19;17.80;69.00
2929;DHT22;1474;51.460;7.150;2023-07-13T06:18:45;17.80;68.80
2929;DHT22;1474;51.460;7.150;2023-07-13T06:21:17;17.80;69.10
2929;DHT22;1474;51.460;7.150;2023-07-13T06:23:46;17.80;69.70
2929;DHT22;1474;51.460;7.150;2023-07-13T06:26:15;17.90;69.40
2929;DHT22;1474;51.460;7.150;2023-07-13T06:28:41;17.90;69.00
2929;DHT22;1474;51.460;7.150;2023-07-13T06:31:08;18.00;69.00
2929;DHT22;1474;51.460;7.150;2023-07-13T06:33:36;18.10;69.90
2929;DHT22;1474;51.460;7.150;2023-07-13T06:36:03;18.20;68.70
2929;DHT22;1474;51.460;7.150;2023-07-13T06:38:30;18.20;68.50
2929;DHT22;1474;51.460;7.150;2023-07-13T06:40:57;18.20;68.80
2929;DHT22;1474;51.460;7.150;2023-07-13T06:43:23;18.20;68.90
2929;DHT22;1474;51.460;7.150;2023-07-13T06:45:50;18.30;69.10
2929;DHT22;1474;51.460;7.150;2023-07-13T06:48:18;18.50;69.00
2929;DHT22;1474;51.460;7.150;2023-07-13T06:50:45;18.60;67.90
2929;DHT22;1474;51.460;7.150;2023-07-13T06:53:12;18.60;67.20
2929;DHT22;1474;51.460;7.150;2023-07-13T06:55:39;18.70;68.00
2929;DHT22;1474;51.460;7.150;2023-07-13T06:58:05;18.70;67.70
2929;DHT22;1474;51.460;7.150;2023-07-13T07:00:31;18.80;67.40
2929;DHT22;1474;51.460;7.150;2023-07-13T07:02:57;18.80;66.80
2929;DHT22;1474;51.460;7.150;2023-07-13T07:05:23;18.90;67.80
2929;DHT22;1474;51.460;7.150;2023-07-13T07:07:54;19.00;67.00
2929;DHT22;1474;51.460;7.150;2023-07-13T07:10:21;19.00;67.30
2929;DHT22;1474;51.460;7.150;2023-07-13T07:12:47;19.10;67.00
2929;DHT22;1474;51.460;7.150;2023-07-13T07:15:13;19.20;66.30
2929;DHT22;1474;51.460;7.150;2023-07-13T07:17:39;19.30;66.80
2929;DHT22;1474;51.460;7.150;2023-07-13T07:20:05;19.40;66.70
2929;DHT22;1474;51.460;7.150;2023-07-13T07:22:32;19.50;65.60
2929;DHT22;1474;51.460;7.150;2023-07-13T07:25:00;19.50;66.70
2929;DHT22;1474;51.460;7.150;2023-07-13T07:27:26;19.60;65.90
2929;DHT22;1474;51.460;7.150;2023-07-13T07:29:52;19.60;65.90
2929;DHT22;1474;51.460;7.150;2023-07-13T07:32:19;19.70;65.50
2929;DHT22;1474;51.460;7.150;2023-07-13T07:34:45;19.80;65.90
2929;DHT22;1474;51.460;7.150;2023-07-13T07:37:12;19.80;64.60
2929;DHT22;1474;51.460;7.150;2023-07-13T07:39:39;19.90;63.90
2929;DHT22;1474;51.460;7.150;2023-07-13T07:42:06;19.90;64.60
2929;DHT22;1474;51.460;7.150;2023-07-13T07:44:32;20.00;64.30
2929;DHT22;1474;51.460;7.150;2023-07-13T07:46:59;20.10;64.90
2929;DHT22;1474;51.460;7.150;2023-07-13T07:49:25;20.20;65.30
2929;DHT22;1474;51.460;7.150;2023-07-13T07:51:52;20.30;64.70
2929;DHT22;1474;51.460;7.150;2023-07-13T07:54:17;20.40;65.30
2929;DHT22;1474;51.460;7.150;2023-07-13T07:56:44;20.40;63.60
2929;DHT22;1474;51.460;7.150;2023-07-13T07:59:10;20.40;64.20
2929;DHT22;1474;51.460;7.150;2023-07-13T08:01:36;20.60;63.30
2929;DHT22;1474;51.460;7.150;2023-07-13T08:04:02;20.70;63.40
2929;DHT22;1474;51.460;7.150;2023-07-13T08:06:29;20.80;63.00
2929;DHT22;1474;51.460;7.150;2023-07-13T08:08:55;20.90;62.80
2929;DHT22;1474;51.460;7.150;2023-07-13T08:11:21;20.90;62.50
2929;DHT22;1474;51.460;7.150;2023-07-13T08:13:47;21.10;63.90
2929;DHT22;1474;51.460;7.150;2023-07-13T08:16:14;21.30;62.10
2929;DHT22;1474;51.460;7.150;2023-07-13T08:18:40;21.40;61.00
2929;DHT22;1474;51.460;7.150;2023-07-13T08:21:07;21.50;61.50
2929;DHT22;1474;51.460;7.150;2023-07-13T08:23:35;21.60;60.30
2929;DHT22;1474;51.460;7.150;2023-07-13T08:26:01;21.60;60.50
2929;DHT22;1474;51.460;7.150;2023-07-13T08:28:29;21.70;62.50
2929;DHT22;1474;51.460;7.150;2023-07-13T08:31:04;21.80;61.30
2929;DHT22;1474;51.460;7.150;2023-07-13T08:33:31;22.00;60.40
2929;DHT22;1474;51.460;7.150;2023-07-13T08:35:57;22.10;59.80
2929;DHT22;1474;51.460;7.150;2023-07-13T08:38:23;22.20;58.80
2929;DHT22;1474;51.460;7.150;2023-07-13T08:40:54;22.40;59.10
2929;DHT22;1474;51.460;7.150;2023-07-13T08:43:35;22.50;59.50
2929;DHT22;1474;51.460;7.150;2023-07-13T08:46:13;22.80;58.60
2929;DHT22;1474;51.460;7.150;2023-07-13T08:48:53;22.90;58.00
2929;DHT22;1474;51.460;7.150;2023-07-13T08:54:05;23.00;57.90
2929;DHT22;1474;51.460;7.150;2023-07-13T08:56:41;23.00;57.00
2929;DHT22;1474;51.460;7.150;2023-07-13T08:59:17;23.00;56.40
2929;DHT22;1474;51.460;7.150;2023-07-13T09:07:50;23.10;56.40
2929;DHT22;1474;51.460;7.150;2023-07-13T09:10:31;23.10;56.60
2929;DHT22;1474;51.460;7.150;2023-07-13T09:15:59;23.30;55.40
2929;DHT22;1474;51.460;7.150;2023-07-13T09:18:33;23.40;55.60
2929;DHT22;1474;51.460;7.150;2023-07-13T09:23:38;23.60;55.70
2929;DHT22;1474;51.460;7.150;2023-07-13T09:26:16;23.80;56.90
2929;DHT22;1474;51.460;7.150;2023-07-13T09:28:47;24.00;56.30
2929;DHT22;1474;51.460;7.150;2023-07-13T09:31:34;24.20;54.20
2929;DHT22;1474;51.460;7.150;2023-07-13T09:34:11;24.20;54.50
2929;DHT22;1474;51.460;7.150;2023-07-13T09:36:39;24.20;54.00
2929;DHT22;1474;51.460;7.150;2023-07-13T09:44:35;24.60;53.70
2929;DHT22;1474;51.460;7.150;2023-07-13T09:47:18;24.70;52.80
2929;DHT22;1474;51.460;7.150;2023-07-13T09:49:57;25.00;52.10
2929;DHT22;1474;51.460;7.150;2023-07-13T09:52:26;25.10;51.80
2929;DHT22;1474;51.460;7.150;2023-07-13T09:54:54;25.00;52.20
2929;DHT22;1474;51.460;7.150;2023-07-13T09:57:26;24.90;52.60
2929;DHT22;1474;51.460;7.150;2023-07-13T09:59:54;24.70;53.60
2929;DHT22;1474;51.460;7.150;2023-07-13T10:02:30;24.60;53.60
2929;DHT22;1474;51.460;7.150;2023-07-13T10:05:07;24.60;54.00
2929;DHT22;1474;51.460;7.150;2023-07-13T10:07:42;24.70;54.00
2929;DHT22;1474;51.460;7.150;2023-07-13T10:10:16;24.70;53.50
2929;DHT22;1474;51.460;7.150;2023-07-13T10:12:46;24.70;52.40
2929;DHT22;1474;51.460;7.150;2023-07-13T10:15:19;24.50;52.50
2929;DHT22;1474;51.460;7.150;2023-07-13T10:17:48;24.50;53.60
2929;DHT22;1474;51.460;7.150;2023-07-13T10:20:16;24.50;53.90
2929;DHT22;1474;51.460;7.150;2023-07-13T10:22:59;24.60;53.70
2929;DHT22;1474;51.460;7.150;2023-07-13T10:25:34;24.70;53.00
2929;DHT22;1474;51.460;7.150;2023-07-13T10:31:14;24.90;52.50
2929;DHT22;1474;51.460;7.150;2023-07-13T10:33:41;24.80;52.70
2929;DHT22;1474;51.460;7.150;2023-07-13T10:36:16;24.70;52.80
2929;DHT22;1474;51.460;7.150;2023-07-13T10:38:48;24.50;53.10
2929;DHT22;1474;51.460;7.150;2023-07-13T10:41:19;24.20;52.30
2929;DHT22;1474;51.460;7.150;2023-07-13T10:43:51;24.10;53.60
2929;DHT22;1474;51.460;7.150;2023-07-13T10:46:22;24.10;53.60
2929;DHT22;1474;51.460;7.150;2023-07-13T10:48:55;24.20;53.30
2929;DHT22;1474;51.460;7.150;2023-07-13T10:51:28;24.10;53.70
2929;DHT22;1474;51.460;7.150;2023-07-13T10:54:15;24.20;54.80
2929;DHT22;1474;51.460;7.150;2023-07-13T11:00:14;24.50;53.20
2929;DHT22;1474;51.460;7.150;2023-07-13T11:02:43;24.70;53.40
2929;DHT22;1474;51.460;7.150;2023-07-13T11:08:02;24.60;52.40
2929;DHT22;1474;51.460;7.150;2023-07-13T11:10:48;24.70;51.60
2929;DHT22;1474;51.460;7.150;2023-07-13T11:16:45;24.60;51.40
2929;DHT22;1474;51.460;7.150;2023-07-13T11:24:53;24.80;51.60
2929;DHT22;1474;51.460;7.150;2023-07-13T11:27:44;24.80;53.20
2929;DHT22;1474;51.460;7.150;2023-07-13T11:36:06;25.20;52.20
2929;DHT22;1474;51.460;7.150;2023-07-13T11:38:45;25.20;51.90
2929;DHT22;1474;51.460;7.150;2023-07-13T11:43:54;25.00;50.40
2929;DHT22;1474;51.460;7.150;2023-07-13T11:46:26;24.90;50.80
2929;DHT22;1474;51.460;7.150;2023-07-13T11:48:53;24.80;51.50
2929;DHT22;1474;51.460;7.150;2023-07-13T11:51:29;24.80;50.60
2929;DHT22;1474;51.460;7.150;2023-07-13T11:54:03;24.90;51.00
2929;DHT22;1474;51.460;7.150;2023-07-13T11:56:31;25.00;50.80
2929;DHT22;1474;51.460;7.150;2023-07-13T11:59:06;25.20;50.20
2929;DHT22;1474;51.460;7.150;2023-07-13T12:01:35;25.30;49.20
2929;DHT22;1474;51.460;7.150;2023-07-13T12:04:21;25.50;49.00
2929;DHT22;1474;51.460;7.150;2023-07-13T12:06:58;25.60;49.90
2929;DHT22;1474;51.460;7.150;2023-07-13T12:09:29;25.70;49.80
2929;DHT22;1474;51.460;7.150;2023-07-13T12:11:57;25.80;49.10
2929;DHT22;1474;51.460;7.150;2023-07-13T12:14:25;26.00;48.80
2929;DHT22;1474;51.460;7.150;2023-07-13T12:16:52;26.20;49.30
2929;DHT22;1474;51.460;7.150;2023-07-13T12:19:25;26.30;47.60
2929;DHT22;1474;51.460;7.150;2023-07-13T12:21:55;26.20;46.40
2929;DHT22;1474;51.460;7.150;2023-07-13T12:24:22;26.00;46.10
2929;DHT22;1474;51.460;7.150;2023-07-13T12:26:58;25.90;47.10
2929;DHT22;1474;51.460;7.150;2023-07-13T12:29:31;25.80;46.90
2929;DHT22;1474;51.460;7.150;2023-07-13T12:31:57;25.90;46.80
2929;DHT22;1474;51.460;7.150;2023-07-13T12:34:25;25.90;47.20
2929;DHT22;1474;51.460;7.150;2023-07-13T12:36:58;26.00;48.40
2929;DHT22;1474;51.460;7.150;2023-07-13T12:39:45;26.20;46.60
2929;DHT22;1474;51.460;7.150;2023-07-13T12:42:25;26.10;44.60
2929;DHT22;1474;51.460;7.150;2023-07-13T12:45:00;26.10;45.70
2929;DHT22;1474;51.460;7.150;2023-07-13T12:47:28;26.10;45.00
2929;DHT22;1474;51.460;7.150;2023-07-13T12:49:58;26.10;47.10
2929;DHT22;1474;51.460;7.150;2023-07-13T12:52:34;26.20;45.30
2929;DHT22;1474;51.460;7.150;2023-07-13T12:55:12;26.40;47.70
2929;DHT22;1474;51.460;7.150;2023-07-13T12:57:54;26.40;46.40
2929;DHT22;1474;51.460;7.150;2023-07-13T13:00:36;26.50;45.30
2929;DHT22;1474;51.460;7.150;2023-07-13T13:03:27;26.40;45.20
2929;DHT22;1474;51.460;7.150;2023-07-13T13:08:47;26.30;45.00
2929;DHT22;1474;51.460;7.150;2023-07-13T13:11:16;26.20;45.90
2929;DHT22;1474;51.460;7.150;2023-07-13T13:13:46;26.10;44.40
2929;DHT22;1474;51.460;7.150;2023-07-13T13:16:20;26.00;45.20
2929;DHT22;1474;51.460;7.150;2023-07-13T13:18:48;25.80;45.40
2929;DHT22;1474;51.460;7.150;2023-07-13T13:21:16;25.60;46.20
2929;DHT22;1474;51.460;7.150;2023-07-13T13:23:43;25.50;46.80
2929;DHT22;1474;51.460;7.150;2023-07-13T13:26:12;25.30;46.70
2929;DHT22;1474;51.460;7.150;2023-07-13T13:28:41;25.10;47.80
2929;DHT22;1474;51.460;7.150;2023-07-13T13:31:09;24.90;48.10
2929;DHT22;1474;51.460;7.150;2023-07-13T13:33:44;24.80;49.10
2929;DHT22;1474;51.460;7.150;2023-07-13T13:36:18;24.60;53.30
2929;DHT22;1474;51.460;7.150;2023-07-13T13:38:49;24.20;54.70
2929;DHT22;1474;51.460;7.150;2023-07-13T13:41:16;23.90;58.50
2929;DHT22;1474;51.460;7.150;2023-07-13T13:43:43;23.60;60.50
2929;DHT22;1474;51.460;7.150;2023-07-13T13:46:17;23.30;60.70
2929;DHT22;1474;51.460;7.150;2023-07-13T13:48:48;23.10;62.80
2929;DHT22;1474;51.460;7.150;2023-07-13T13:51:22;22.80;62.40
2929;DHT22;1474;51.460;7.150;2023-07-13T13:53:49;22.70;64.30
2929;DHT22;1474;51.460;7.150;2023-07-13T13:56:17;22.70;64.50
2929;DHT22;1474;51.460;7.150;2023-07-13T13:58:44;22.70;63.40
2929;DHT22;1474;51.460;7.150;2023-07-13T14:01:19;22.70;64.50
2929;DHT22;1474;51.460;7.150;2023-07-13T14:03:46;22.60;63.10
2929;DHT22;1474;51.460;7.150;2023-07-13T14:06:15;22.60;65.00
2929;DHT22;1474;51.460;7.150;2023-07-13T14:08:41;22.70;65.80
2929;DHT22;1474;51.460;7.150;2023-07-13T14:11:16;22.70;65.90
2929;DHT22;1474;51.460;7.150;2023-07-13T14:13:53;22.90;65.70
2929;DHT22;1474;51.460;7.150;2023-07-13T14:16:22;23.10;64.40
2929;DHT22;1474;51.460;7.150;2023-07-13T14:18:53;23.20;65.70
2929;DHT22;1474;51.460;7.150;2023-07-13T14:21:21;23.20;58.50
2929;DHT22;1474;51.460;7.150;2023-07-13T14:23:48;22.80;61.40
2929;DHT22;1474;51.460;7.150;2023-07-13T14:26:18;22.80;64.60
2929;DHT22;1474;51.460;7.150;2023-07-13T14:28:51;22.70;62.90
2929;DHT22;1474;51.460;7.150;2023-07-13T14:31:22;22.70;64.90
2929;DHT22;1474;51.460;7.150;2023-07-13T14:33:50;22.70;65.30
2929;DHT22;1474;51.460;7.150;2023-07-13T14:39:01;22.30;66.90
2929;DHT22;1474;51.460;7.150;2023-07-13T14:41:37;22.30;68.00
2929;DHT22;1474;51.460;7.150;2023-07-13T14:44:10;22.20;69.20
2929;DHT22;1474;51.460;7.150;2023-07-13T14:46:41;22.10;70.00
2929;DHT22;1474;51.460;7.150;2023-07-13T14:49:31;22.20;70.30
2929;DHT22;1474;51.460;7.150;2023-07-13T14:52:12;22.20;70.10
2929;DHT22;1474;51.460;7.150;2023-07-13T14:54:46;22.20;70.80
2929;DHT22;1474;51.460;7.150;2023-07-13T14:57:14;22.20;69.00
2929;DHT22;1474;51.460;7.150;2023-07-13T14:59:44;22.20;70.80
2929;DHT22;1474;51.460;7.150;2023-07-13T15:02:15;22.20;70.50
2929;DHT22;1474;51.460;7.150;2023-07-13T15:04:43;22.10;70.30
2929;DHT22;1474;51.460;7.150;2023-07-13T15:07:11;22.10;71.60
2929;DHT22;1474;51.460;7.150;2023-07-13T15:09:38;22.20;69.60
2929;DHT22;1474;51.460;7.150;2023-07-13T15:12:05;22.20;71.10
2929;DHT22;1474;51.460;7.150;2023-07-13T15:14:31;22.20;66.50
2929;DHT22;1474;51.460;7.150;2023-07-13T15:16:57;22.20;70.20
2929;DHT22;1474;51.460;7.150;2023-07-13T15:19:25;22.30;69.80
2929;DHT22;1474;51.460;7.150;2023-07-13T15:21:51;22.40;64.20
2929;DHT22;1474;51.460;7.150;2023-07-13T15:24:20;22.40;65.00
2929;DHT22;1474;51.460;7.150;2023-07-13T15:26:47;22.40;67.50
2929;DHT22;1474;51.460;7.150;2023-07-13T15:29:17;22.40;66.80
2929;DHT22;1474;51.460;7.150;2023-07-13T15:31:43;22.40;67.50
2929;DHT22;1474;51.460;7.150;2023-07-13T15:34:15;22.40;67.40
2929;DHT22;1474;51.460;7.150;2023-07-13T15:36:44;22.40;67.90
2929;DHT22;1474;51.460;7.150;2023-07-13T15:39:14;22.40;68.50
2929;DHT22;1474;51.460;7.150;2023-07-13T15:41:42;22.50;70.20
2929;DHT22;1474;51.460;7.150;2023-07-13T15:44:29;22.40;70.10
2929;DHT22;1474;51.460;7.150;2023-07-13T15:46:57;22.50;69.00
2929;DHT22;1474;51.460;7.150;2023-07-13T15:49:25;22.50;69.00
2929;DHT22;1474;51.460;7.150;2023-07-13T15:51:51;22.50;69.30
2929;DHT22;1474;51.460;7.150;2023-07-13T15:54:19;22.40;70.00
2929;DHT22;1474;51.460;7.150;2023-07-13T15:56:51;22.30;70.00
2929;DHT22;1474;51.460;7.150;2023-07-13T15:59:18;22.00;69.80
2929;DHT22;1474;51.460;7.150;2023-07-13T16:01:44;21.60;67.30
2929;DHT22;1474;51.460;7.150;2023-07-13T16:04:12;21.30;70.20
2929;DHT22;1474;51.460;7.150;2023-07-13T16:06:40;21.10;71.10
2929;DHT22;1474;51.460;7.150;2023-07-13T16:09:09;21.00;71.30
2929;DHT22;1474;51.460;7.150;2023-07-13T16:11:42;20.90;70.00
2929;DHT22;1474;51.460;7.150;2023-07-13T16:14:12;20.80;70.60
2929;DHT22;1474;51.460;7.150;2023-07-13T16:16:39;20.70;70.10
2929;DHT22;1474;51.460;7.150;2023-07-13T16:19:05;20.70;70.60
2929;DHT22;1474;51.460;7.150;2023-07-13T16:21:35;20.60;71.10
2929;DHT22;1474;51.460;7.150;2023-07-13T16:24:18;20.60;71.30
2929;DHT22;1474;51.460;7.150;2023-07-13T16:26:46;20.60;71.50
2929;DHT22;1474;51.460;7.150;2023-07-13T16:29:15;20.50;72.60
2929;DHT22;1474;51.460;7.150;2023-07-13T16:32:09;20.50;72.80
2929;DHT22;1474;51.460;7.150;2023-07-13T16:34:41;20.60;72.70
2929;DHT22;1474;51.460;7.150;2023-07-13T16:39:42;20.60;72.50
2929;DHT22;1474;51.460;7.150;2023-07-13T16:42:11;20.60;72.60
2929;DHT22;1474;51.460;7.150;2023-07-13T16:44:37;20.60;73.10
2929;DHT22;1474;51.460;7.150;2023-07-13T16:47:08;20.70;73.10
2929;DHT22;1474;51.460;7.150;2023-07-13T16:49:38;20.70;73.10
2929;DHT22;1474;51.460;7.150;2023-07-13T16:52:04;20.70;73.40
2929;DHT22;1474;51.460;7.150;2023-07-13T16:54:35;20.70;74.30
2929;DHT22;1474;51.460;7.150;2023-07-13T16:57:11;20.70;73.80
2929;DHT22;1474;51.460;7.150;2023-07-13T16:59:40;20.70;72.80
2929;DHT22;1474;51.460;7.150;2023-07-13T17:02:31;20.80;73.90
2929;DHT22;1474;51.460;7.150;2023-07-13T17:05:03;20.80;73.20
2929;DHT22;1474;51.460;7.150;2023-07-13T17:07:31;20.80;73.60
2929;DHT22;1474;51.460;7.150;2023-07-13T17:09:58;20.90;72.50
2929;DHT22;1474;51.460;7.150;2023-07-13T17:12:25;20.90;73.10